TimeCDT,TemperatureF,Dew PointF,Humidity,Sea Level PressureIn,VisibilityMPH,Wind Direction,Wind SpeedMPH,Gust SpeedMPH,PrecipitationIn,Events,Conditions,WindDirDegrees,DateUTC
12:54 AM,77.0,68.0,74,29.78,10.0,SE,8.1,-,N/A,,Mostly Cloudy,130,2013-06-12 05:54:00
1:54 AM,75.9,66.9,74,29.76,10.0,ESE,9.2,-,N/A,,Mostly Cloudy,110,2013-06-12 06:54:00
2:54 AM,75.0,66.9,76,29.75,10.0,ESE,9.2,-,N/A,,Partly Cloudy,110,2013-06-12 07:54:00
3:54 AM,75.0,66.0,73,29.75,10.0,SE,8.1,-,N/A,,Overcast,130,2013-06-12 08:54:00
4:26 AM,75.0,66.0,73,29.79,10.0,ESE,5.8,-,N/A,Thunderstorm,Thunderstorm,120,2013-06-12 09:26:00
4:54 AM,73.9,66.0,76,29.79,10.0,East,3.5,-,N/A,Thunderstorm,Thunderstorm,90,2013-06-12 09:54:00
5:54 AM,73.9,68.0,82,29.80,7.0,SE,10.4,-,0.15,Rain-Thunderstorm,Light Thunderstorms and Rain,130,2013-06-12 10:54:00
6:16 AM,73.0,68.0,84,29.79,10.0,ESE,10.4,-,0.01,Rain,Light Rain,110,2013-06-12 11:16:00
6:54 AM,73.0,68.0,84,29.77,10.0,SE,6.9,-,0.01,Rain,Light Rain,130,2013-06-12 11:54:00
7:54 AM,73.9,69.1,85,29.72,10.0,SSE,11.5,-,0.00,,Overcast,160,2013-06-12 12:54:00
8:54 AM,75.9,70.0,82,29.73,10.0,SSE,9.2,-,N/A,,Mostly Cloudy,160,2013-06-12 13:54:00
9:54 AM,81.0,71.1,72,29.69,10.0,South,13.8,-,0.00,,Partly Cloudy,180,2013-06-12 14:54:00
10:54 AM,82.9,71.1,67,29.68,10.0,SW,16.1,23.0,N/A,,Partly Cloudy,220,2013-06-12 15:54:00
11:54 AM,86.0,72.0,63,29.68,10.0,SW,17.3,-,N/A,,Scattered Clouds,230,2013-06-12 16:54:00
12:54 PM,84.9,70.0,61,29.69,10.0,WSW,13.8,-,N/A,,Scattered Clouds,250,2013-06-12 17:54:00
1:54 PM,89.1,71.1,55,29.69,10.0,WSW,12.7,-,N/A,,Partly Cloudy,250,2013-06-12 18:54:00
2:54 PM,89.1,70.0,53,29.69,10.0,West,11.5,-,N/A,,Partly Cloudy,270,2013-06-12 19:54:00
3:54 PM,91.0,71.1,52,29.68,10.0,West,16.1,-,N/A,,Partly Cloudy,270,2013-06-12 20:54:00
4:54 PM,89.1,70.0,53,29.67,10.0,WNW,24.2,-,N/A,,Scattered Clouds,300,2013-06-12 21:54:00
5:54 PM,84.9,68.0,57,29.68,10.0,NW,24.2,32.2,N/A,,Partly Cloudy,310,2013-06-12 22:54:00
6:54 PM,82.0,64.9,56,29.72,10.0,NW,29.9,38.0,N/A,,Partly Cloudy,310,2013-06-12 23:54:00
7:54 PM,75.9,63.0,64,29.78,10.0,NNW,27.6,40.3,N/A,,Mostly Cloudy,330,2013-06-13 00:54:00
8:54 PM,69.1,59.0,70,29.81,10.0,NW,20.7,33.4,N/A,,Partly Cloudy,320,2013-06-13 01:54:00
9:39 PM,68.0,59.0,73,29.83,10.0,NW,25.3,33.4,N/A,,Mostly Cloudy,310,2013-06-13 02:39:00
9:54 PM,66.9,57.9,73,29.83,10.0,NW,20.7,33.4,N/A,,Overcast,310,2013-06-13 02:54:00
10:54 PM,66.9,57.9,73,29.84,10.0,NW,21.9,32.2,N/A,,Overcast,320,2013-06-13 03:54:00
11:54 PM,68.0,55.0,63,29.86,10.0,NW,19.6,-,N/A,,Overcast,310,2013-06-13 04:54:00